Time;durP1;ratioP1;P1;durP2;ratioP2;P2;SDS_P1;SDS_P2;PMS_P1;PMS_P2;Temp;Humidity;BMP_temperature;BMP_pressure;BME280_temperature;BME280_humidity;BME280_pressure;Samples;Min_cycle;Max_cycle;Signal;HPM_P1;HPM_P2
2022/06/10 03:07:08;;;;;;;15.38;6.05;;;;;;;;;;5924552;22;20022;-82
2022/06/10 03:09:46;;;;;;;9.98;5.53;;;;;;;;;;6274606;22;20007;-81
2022/06/10 03:12:34;;;;;;;9.85;5.63;;;;;;;;;;6274750;22;20011;-82
2022/06/10 03:15:28;;;;;;;15.38;5.90;;;;;;;;;;6277961;22;20532;-82
2022/06/10 03:18:02;;;;;;;7.22;5.35;;;;;;;;;;6223017;22;20007;-83
2022/06/10 03:20:34;;;;;;;12.55;5.28;;;;;;;;;;6264598;22;20004;-83
2022/06/10 03:23:05;;;;;;;17.50;5.88;;;;;;;;;;6252830;22;20053;-82
2022/06/10 03:25:43;;;;;;;9.05;5.45;;;;;;;;;;6252926;22;20010;-81
2022/06/10 03:28:19;;;;;;;12.52;5.70;;;;;;;;;;6227574;22;20469;-82
2022/06/10 03:30:53;;;;;;;9.20;5.50;;;;;;;;;;6227295;22;20011;-81
2022/06/10 03:33:28;;;;;;;10.65;6.32;;;;;;;;;;6251073;22;20022;-82
2022/06/10 03:36:00;;;;;;;7.93;5.57;;;;;;;;;;6251467;22;20106;-82
2022/06/10 03:38:27;;;;;;;8.40;5.00;;;;;;;;;;6228763;22;20004;-82
2022/06/10 03:40:54;;;;;;;14.48;5.75;;;;;;;;;;6242269;22;20007;-83
2022/06/10 03:43:20;;;;;;;10.98;6.18;;;;;;;;;;6259706;22;19999;-83
2022/06/10 03:45:46;;;;;;;10.80;5.80;;;;;;;;;;6257110;22;20079;-82
2022/06/10 03:48:14;;;;;;;8.80;5.50;;;;;;;;;;6226299;22;20010;-82
2022/06/10 03:50:40;;;;;;;10.90;5.93;;;;;;;;;;6251234;22;20003;-82
2022/06/10 03:53:06;;;;;;;9.25;5.50;;;;;;;;;;6251040;22;20035;-83
2022/06/10 03:55:31;;;;;;;11.77;5.93;;;;;;;;;;6278920;22;20026;-82
2022/06/10 03:57:57;;;;;;;13.60;6.13;;;;;;;;;;6226524;22;20007;-82
2022/06/10 04:00:25;;;;;;;9.93;6.00;;;;;;;;;;6262208;22;20035;-82
2022/06/10 04:02:51;;;;;;;8.43;5.90;;;;;;;;;;6283250;22;20017;-82
2022/06/10 04:05:17;;;;;;;9.23;5.90;;;;;;;;;;6261154;22;20490;-83
2022/06/10 04:07:42;;;;;;;8.75;5.63;;;;;;;;;;6264806;22;20008;-82
2022/06/10 04:10:09;;;;;;;9.40;6.03;;;;;;;;;;6276613;22;20065;-82
2022/06/10 04:12:36;;;;;;;9.38;5.53;;;;;;;;;;6277355;22;19999;-82
2022/06/10 04:15:02;;;;;;;10.25;5.88;;;;;;;;;;6277993;22;20019;-81
2022/06/10 04:17:27;;;;;;;11.60;6.18;;;;;;;;;;6276765;22;20000;-82
2022/06/10 04:19:57;;;;;;;8.30;6.10;;;;;;;;;;6291969;22;20037;-80
2022/06/10 04:22:23;;;;;;;14.25;5.95;;;;;;;;;;6279070;22;20334;-81
2022/06/10 04:24:49;;;;;;;14.13;6.28;;;;;;;;;;6278603;22;20378;-82
2022/06/10 04:27:14;;;;;;;8.25;5.55;;;;;;;;;;6290416;22;20030;-81
2022/06/10 04:29:41;;;;;;;10.73;5.80;;;;;;;;;;6276579;22;20308;-81
2022/06/10 04:32:07;;;;;;;15.32;6.63;;;;;;;;;;6276872;22;20085;-82
2022/06/10 04:34:33;;;;;;;9.43;6.32;;;;;;;;;;6276567;22;20419;-81
2022/06/10 04:36:58;;;;;;;13.73;6.30;;;;;;;;;;6276610;22;19999;-81
2022/06/10 04:39:25;;;;;;;12.45;6.00;;;;;;;;;;6287520;22;20022;-79
2022/06/10 04:41:51;;;;;;;9.38;6.00;;;;;;;;;;6281384;22;20003;-80
2022/06/10 04:44:17;;;;;;;10.07;6.00;;;;;;;;;;6276644;22;20011;-80
2022/06/10 04:46:43;;;;;;;16.85;6.68;;;;;;;;;;6276463;22;20000;-80
2022/06/10 04:49:17;;;;;;;13.52;6.63;;;;;;;;;;6279707;22;20008;-82
2022/06/10 04:51:46;;;;;;;13.48;6.20;;;;;;;;;;6283698;22;19995;-81
2022/06/10 04:54:27;;;;;;;9.25;6.05;;;;;;;;;;6278665;22;19999;-80
2022/06/10 04:56:55;;;;;;;10.20;5.50;;;;;;;;;;6230151;22;20639;-82
2022/06/10 04:59:22;;;;;;;10.55;5.70;;;;;;;;;;6283486;22;20014;-83
2022/06/10 05:01:48;;;;;;;13.63;6.07;;;;;;;;;;6291486;22;20083;-81
2022/06/10 05:04:17;;;;;;;10.77;5.55;;;;;;;;;;6287653;22;20067;-82
2022/06/10 05:06:42;;;;;;;7.40;5.60;;;;;;;;;;6288183;22;20023;-80
2022/06/10 05:09:08;;;;;;;11.60;5.85;;;;;;;;;;6287184;22;20076;-80
2022/06/10 05:11:59;;;;;;;9.45;5.18;;;;;;;;;;6288469;22;20000;-81
2022/06/10 05:14:25;;;;;;;9.45;5.32;;;;;;;;;;6289457;22;20020;-80
2022/06/10 05:17:02;;;;;;;8.30;5.28;;;;;;;;;;6229263;23;20039;-81
2022/06/10 05:19:29;;;;;;;15.80;5.78;;;;;;;;;;6229616;23;20040;-81
2022/06/10 05:22:04;;;;;;;16.00;6.03;;;;;;;;;;6229891;23;20008;-80
2022/06/10 05:24:29;;;;;;;9.02;5.35;;;;;;;;;;6223448;23;20007;-78
2022/06/10 05:26:55;;;;;;;19.55;5.43;;;;;;;;;;6194581;23;20008;-81
2022/06/10 05:29:21;;;;;;;5.00;4.50;;;;;;;;;;6253917;23;20019;-80
2022/06/10 05:31:46;;;;;;;7.78;4.38;;;;;;;;;;6229728;23;20402;-78
2022/06/10 05:37:02;;;;;;;7.57;5.38;;;;;;;;;;6237536;23;20367;-79
2022/06/10 05:39:55;;;;;;;11.32;5.70;;;;;;;;;;6260540;23;20075;-80
2022/06/10 05:42:57;;;;;;;7.65;5.00;;;;;;;;;;6231658;23;20087;-80
2022/06/10 05:45:26;;;;;;;11.57;6.00;;;;;;;;;;6263403;23;20020;-80
2022/06/10 05:47:55;;;;;;;10.90;4.93;;;;;;;;;;6201755;23;20012;-79
2022/06/10 05:50:34;;;;;;;12.82;5.18;;;;;;;;;;6224214;23;20472;-79
2022/06/10 05:53:00;;;;;;;9.15;5.43;;;;;;;;;;6223670;23;20004;-78
2022/06/10 05:55:26;;;;;;;8.48;4.97;;;;;;;;;;6194258;23;20059;-82
2022/06/10 05:57:52;;;;;;;8.43;5.00;;;;;;;;;;6195732;23;20058;-79
2022/06/10 06:00:21;;;;;;;9.02;4.95;;;;;;;;;;6253960;23;20044;-79
2022/06/10 06:02:58;;;;;;;7.53;4.78;;;;;;;;;;6234063;23;20008;-82
2022/06/10 06:05:28;;;;;;;8.52;4.25;;;;;;;;;;6201956;23;20351;-80
2022/06/10 06:07:53;;;;;;;8.70;6.20;;;;;;;;;;6244809;23;20008;-79
2022/06/10 06:10:22;;;;;;;7.50;5.88;;;;;;;;;;6253489;23;20007;-80
2022/06/10 06:12:53;;;;;;;18.77;5.80;;;;;;;;;;6227265;23;20011;-79
2022/06/10 06:15:18;;;;;;;11.10;4.68;;;;;;;;;;6255846;23;20008;-76
2022/06/10 06:17:50;;;;;;;7.88;5.15;;;;;;;;;;6228226;23;20091;-78
2022/06/10 06:20:15;;;;;;;6.85;4.70;;;;;;;;;;6226329;23;20015;-79
2022/06/10 06:22:41;;;;;;;14.95;9.77;;;;;;;;;;6198491;23;20004;-80
2022/06/10 06:25:07;;;;;;;14.00;5.43;;;;;;;;;;6215121;23;19996;-80
2022/06/10 06:27:37;;;;;;;9.65;6.00;;;;;;;;;;6216202;23;20091;-80
2022/06/10 06:30:04;;;;;;;8.55;5.13;;;;;;;;;;6219950;23;20000;-78
2022/06/10 06:32:30;;;;;;;15.18;9.70;;;;;;;;;;6250623;23;20004;-81
2022/06/10 06:34:56;;;;;;;8.05;5.82;;;;;;;;;;6203357;23;20091;-79
2022/06/10 06:37:21;;;;;;;9.15;5.35;;;;;;;;;;6243822;23;20346;-79
2022/06/10 06:39:47;;;;;;;11.73;5.65;;;;;;;;;;6246922;23;20022;-78
2022/06/10 06:42:13;;;;;;;10.80;5.53;;;;;;;;;;6193836;23;20058;-78
2022/06/10 06:44:40;;;;;;;15.18;8.07;;;;;;;;;;6220451;23;20082;-81
2022/06/10 06:47:07;;;;;;;18.75;6.10;;;;;;;;;;6243572;23;19997;-79
2022/06/10 06:49:33;;;;;;;7.88;5.50;;;;;;;;;;6219371;23;20008;-80
2022/06/10 06:51:59;;;;;;;12.95;8.82;;;;;;;;;;6218888;23;20004;-77
2022/06/10 06:54:24;;;;;;;11.00;5.57;;;;;;;;;;6215314;23;20028;-80
2022/06/10 06:56:51;;;;;;;13.27;5.22;;;;;;;;;;6242349;23;20412;-78
2022/06/10 06:59:16;;;;;;;12.82;8.18;;;;;;;;;;6216420;23;20339;-78
2022/06/10 07:01:41;;;;;;;12.00;5.50;;;;;;;;;;6250838;23;19988;-80
2022/06/10 07:04:07;;;;;;;11.43;5.30;;;;;;;;;;6250520;23;20067;-78
2022/06/10 07:06:33;;;;;;;12.07;5.80;;;;;;;;;;6250649;23;20078;-79
2022/06/10 07:09:02;;;;;;;7.22;5.55;;;;;;;;;;6219261;23;20036;-77
2022/06/10 07:11:28;;;;;;;9.15;5.72;;;;;;;;;;6246854;23;20015;-80
2022/06/10 07:13:53;;;;;;;15.55;6.20;;;;;;;;;;6246671;23;20000;-79
2022/06/10 07:16:19;;;;;;;9.77;5.10;;;;;;;;;;6245620;23;20060;-79
2022/06/10 07:18:45;;;;;;;10.90;5.38;;;;;;;;;;6220088;23;20011;-79
2022/06/10 07:21:10;;;;;;;10.65;5.45;;;;;;;;;;6246728;23;20032;-79
2022/06/10 07:23:55;;;;;;;12.00;5.32;;;;;;;;;;6252240;23;20047;-76
2022/06/10 07:26:21;;;;;;;12.52;4.97;;;;;;;;;;6243440;23;20078;-79
2022/06/10 07:28:47;;;;;;;14.25;6.55;;;;;;;;;;6245847;23;20000;-78
2022/06/10 07:31:12;;;;;;;11.70;5.88;;;;;;;;;;6239332;23;20031;-79
2022/06/10 07:33:38;;;;;;;9.05;5.68;;;;;;;;;;6242304;23;20000;-79
2022/06/10 07:36:05;;;;;;;12.85;5.72;;;;;;;;;;6238403;23;20016;-77
2022/06/10 07:38:34;;;;;;;14.57;4.22;;;;;;;;;;6239929;23;20012;-77
2022/06/10 07:43:43;;;;;;;7.15;4.05;;;;;;;;;;6248855;23;20350;-79
2022/06/10 07:46:12;;;;;;;8.68;4.32;;;;;;;;;;6188029;23;20008;-79
2022/06/10 07:48:38;;;;;;;8.23;5.72;;;;;;;;;;6219584;23;20004;-77
2022/06/10 07:51:05;;;;;;;6.65;3.67;;;;;;;;;;6250891;23;20011;-79
2022/06/10 07:53:31;;;;;;;6.38;4.25;;;;;;;;;;6247180;23;20494;-78
2022/06/10 07:55:57;;;;;;;10.43;5.05;;;;;;;;;;6243912;23;20011;-79
2022/06/10 07:58:24;;;;;;;5.15;3.88;;;;;;;;;;6241727;23;20004;-79
2022/06/10 08:00:51;;;;;;;5.88;3.97;;;;;;;;;;6214344;23;20331;-80
2022/06/10 08:03:17;;;;;;;10.40;6.32;;;;;;;;;;6251312;23;20035;-78
2022/06/10 08:05:42;;;;;;;20.63;6.30;;;;;;;;;;6216155;23;20054;-79
2022/06/10 08:08:08;;;;;;;9.82;6.60;;;;;;;;;;6241112;23;20093;-79
2022/06/10 08:10:35;;;;;;;9.85;6.15;;;;;;;;;;6214957;23;20008;-79
2022/06/10 08:13:01;;;;;;;11.13;6.85;;;;;;;;;;6242322;23;20432;-78
2022/06/10 08:15:27;;;;;;;7.13;5.28;;;;;;;;;;6250109;23;20012;-80
2022/06/10 08:17:52;;;;;;;8.05;4.55;;;;;;;;;;6245353;23;20027;-81
2022/06/10 08:20:21;;;;;;;8.07;6.03;;;;;;;;;;6192360;23;20000;-79
2022/06/10 08:22:47;;;;;;;6.15;3.90;;;;;;;;;;6220746;23;20088;-80
2022/06/10 08:25:13;;;;;;;19.90;7.68;;;;;;;;;;6217829;23;20099;-80
2022/06/10 08:27:39;;;;;;;7.78;4.38;;;;;;;;;;6217053;23;20046;-81
2022/06/10 08:30:06;;;;;;;7.18;4.70;;;;;;;;;;6245060;23;20414;-81
2022/06/10 08:32:32;;;;;;;12.23;7.18;;;;;;;;;;6244334;23;20091;-79
2022/06/10 08:34:57;;;;;;;7.93;4.63;;;;;;;;;;6244827;23;20419;-77
2022/06/10 08:37:23;;;;;;;18.27;8.25;;;;;;;;;;6251856;23;20182;-81
2022/06/10 08:39:48;;;;;;;10.93;4.72;;;;;;;;;;6243993;23;20090;-80
2022/06/10 08:42:32;;;;;;;10.23;7.53;;;;;;;;;;6244829;23;20095;-79
2022/06/10 08:44:59;;;;;;;11.93;5.40;;;;;;;;;;6226355;23;20367;-76
2022/06/10 08:47:34;;;;;;;10.30;5.53;;;;;;;;;;6218030;23;20000;-80
2022/06/10 08:50:12;;;;;;;17.33;6.40;;;;;;;;;;6216396;23;20001;-78
2022/06/10 08:52:53;;;;;;;21.80;7.65;;;;;;;;;;6243122;23;20003;-78
2022/06/10 08:55:40;;;;;;;24.58;7.80;;;;;;;;;;6243653;23;20004;-79
2022/06/10 08:58:46;;;;;;;20.42;8.02;;;;;;;;;;6214023;23;20049;-77
2022/06/10 09:01:22;;;;;;;28.30;9.18;;;;;;;;;;6226751;23;20035;-78
2022/06/10 09:03:56;;;;;;;22.40;9.70;;;;;;;;;;6243287;23;20071;-77
2022/06/10 09:06:32;;;;;;;22.00;9.02;;;;;;;;;;6219169;23;20001;-76
2022/06/10 09:09:02;;;;;;;17.35;9.60;;;;;;;;;;6172039;23;20016;-76
2022/06/10 09:11:30;;;;;;;16.08;9.73;;;;;;;;;;6240932;23;20000;-75
2022/06/10 09:14:16;;;;;;;23.95;10.70;;;;;;;;;;6212977;23;20423;-76
2022/06/10 09:17:15;;;;;;;18.80;11.10;;;;;;;;;;6238273;23;20016;-75
2022/06/10 09:20:05;;;;;;;22.13;11.82;;;;;;;;;;6241442;23;20099;-75
2022/06/10 09:22:50;;;;;;;13.73;9.05;;;;;;;;;;6240425;23;20305;-77
2022/06/10 09:25:28;;;;;;;12.18;9.15;;;;;;;;;;6242623;23;20008;-77
2022/06/10 09:27:57;;;;;;;14.73;7.97;;;;;;;;;;6195229;23;20004;-78
2022/06/10 09:30:47;;;;;;;20.02;9.70;;;;;;;;;;6193383;23;20019;-79
2022/06/10 09:33:37;;;;;;;14.73;9.02;;;;;;;;;;6211967;23;20507;-75
2022/06/10 09:36:11;;;;;;;12.90;8.60;;;;;;;;;;6188570;23;20106;-75
2022/06/10 09:38:53;;;;;;;14.55;8.02;;;;;;;;;;6237533;23;20342;-75
2022/06/10 09:41:18;;;;;;;14.35;8.98;;;;;;;;;;6238460;23;20087;-76
2022/06/10 09:44:05;;;;;;;13.07;8.38;;;;;;;;;;6241758;23;20007;-75
2022/06/10 09:47:01;;;;;;;12.65;8.32;;;;;;;;;;6243771;23;20028;-76
2022/06/10 09:49:52;;;;;;;11.15;8.00;;;;;;;;;;6182185;23;20102;-78
2022/06/10 09:52:32;;;;;;;20.13;13.45;;;;;;;;;;6220799;23;20276;-76
2022/06/10 09:55:22;;;;;;;15.32;9.13;;;;;;;;;;6215574;23;20079;-78
2022/06/10 09:58:00;;;;;;;11.65;6.72;;;;;;;;;;6213189;23;19996;-76
2022/06/10 10:00:38;;;;;;;11.85;6.70;;;;;;;;;;6213812;23;20493;-78
2022/06/10 10:03:15;;;;;;;10.88;5.85;;;;;;;;;;6214249;23;20247;-76
2022/06/10 10:05:45;;;;;;;9.98;6.15;;;;;;;;;;6244570;23;20057;-77
2022/06/10 10:08:35;;;;;;;12.05;6.30;;;;;;;;;;6218385;23;20015;-77
2022/06/10 10:11:07;;;;;;;15.80;11.32;;;;;;;;;;6214173;23;20004;-78
2022/06/10 10:13:48;;;;;;;8.15;6.43;;;;;;;;;;6190168;23;20331;-79
2022/06/10 10:16:35;;;;;;;6.13;5.32;;;;;;;;;;6240979;23;20027;-77
2022/06/10 10:19:30;;;;;;;9.43;6.03;;;;;;;;;;6241986;23;20011;-77
2022/06/10 10:22:02;;;;;;;14.98;10.00;;;;;;;;;;6195868;23;20004;-78
2022/06/10 10:24:28;;;;;;;13.07;7.90;;;;;;;;;;6217345;23;20004;-78
2022/06/10 10:26:54;;;;;;;12.30;9.27;;;;;;;;;;6224555;23;20035;-76
2022/06/10 10:29:33;;;;;;;13.00;9.80;;;;;;;;;;6219817;23;20011;-75
2022/06/10 10:32:15;;;;;;;8.27;6.67;;;;;;;;;;6246922;23;20000;-75
2022/06/10 10:34:53;;;;;;;8.88;6.40;;;;;;;;;;6219689;23;20000;-74
2022/06/10 10:37:31;;;;;;;12.35;6.20;;;;;;;;;;6243402;23;20008;-77
2022/06/10 10:40:16;;;;;;;14.15;7.63;;;;;;;;;;6243050;23;20111;-77
2022/06/10 10:42:43;;;;;;;7.68;5.80;;;;;;;;;;6240292;23;20008;-76
2022/06/10 10:45:21;;;;;;;14.05;10.15;;;;;;;;;;6185169;23;20014;-75
2022/06/10 10:47:54;;;;;;;9.35;6.88;;;;;;;;;;6214778;23;20455;-75
2022/06/10 10:50:24;;;;;;;13.18;9.10;;;;;;;;;;6214930;23;20005;-75
2022/06/10 10:52:50;;;;;;;7.85;6.47;;;;;;;;;;6215368;23;20003;-79
2022/06/10 10:55:18;;;;;;;9.32;6.30;;;;;;;;;;6214913;23;20008;-77
2022/06/10 10:58:17;;;;;;;11.40;6.68;;;;;;;;;;6214579;23;20410;-79
2022/06/10 11:00:44;;;;;;;8.52;7.05;;;;;;;;;;6239924;23;20011;-77
2022/06/10 11:03:36;;;;;;;10.63;7.90;;;;;;;;;;6212117;23;20047;-79
2022/06/10 11:06:04;;;;;;;7.10;5.75;;;;;;;;;;6241333;23;20004;-77
2022/06/10 11:08:35;;;;;;;8.55;6.57;;;;;;;;;;6192311;23;20569;-76
2022/06/10 11:11:12;;;;;;;12.55;5.18;;;;;;;;;;6214159;23;20000;-76
2022/06/10 11:13:41;;;;;;;10.63;5.85;;;;;;;;;;6215177;23;20008;-76
2022/06/10 11:16:29;;;;;;;14.05;7.85;;;;;;;;;;6240185;23;20004;-77
2022/06/10 11:19:08;;;;;;;11.90;6.18;;;;;;;;;;6241781;23;20094;-78
2022/06/10 11:21:46;;;;;;;10.17;5.80;;;;;;;;;;6244913;23;20416;-77
2022/06/10 11:24:15;;;;;;;9.15;5.22;;;;;;;;;;6190016;23;20262;-77
2022/06/10 11:26:47;;;;;;;6.68;5.20;;;;;;;;;;6242235;23;20011;-77
2022/06/10 11:29:13;;;;;;;6.35;4.90;;;;;;;;;;6217433;23;20003;-75
2022/06/10 11:31:43;;;;;;;5.95;5.03;;;;;;;;;;6242548;23;20028;-76
2022/06/10 11:34:13;;;;;;;;;;;;;;;;;;6215034;23;20083;-76
2022/06/10 11:36:47;;;;;;;5.03;4.35;;;;;;;;;;6215974;23;20314;-77
2022/06/10 11:39:23;;;;;;;8.38;4.30;;;;;;;;;;6243585;23;20004;-77
2022/06/10 11:42:17;;;;;;;17.00;5.10;;;;;;;;;;6244519;23;20139;-76
2022/06/10 11:45:06;;;;;;;6.10;4.40;;;;;;;;;;6243545;23;20007;-77
2022/06/10 11:47:47;;;;;;;7.32;5.00;;;;;;;;;;6224570;23;20339;-79
2022/06/10 11:50:19;;;;;;;17.02;12.85;;;;;;;;;;6195180;23;20008;-77
2022/06/10 11:52:55;;;;;;;11.40;7.15;;;;;;;;;;6190721;23;20018;-76
2022/06/10 11:55:25;;;;;;;6.93;4.40;;;;;;;;;;6216389;23;20087;-76
2022/06/10 12:01:15;;;;;;;14.17;8.27;;;;;;;;;;6146103;23;20002;-76
2022/06/10 12:04:04;;;;;;;11.85;7.57;;;;;;;;;;6245666;23;20008;-76
2022/06/10 12:06:31;;;;;;;7.05;3.70;;;;;;;;;;6245305;23;20499;-75
2022/06/10 12:09:15;;;;;;;6.72;4.47;;;;;;;;;;6229185;23;20007;-77
2022/06/10 12:11:45;;;;;;;6.13;3.63;;;;;;;;;;6245659;23;20004;-77
2022/06/10 12:14:37;;;;;;;6.10;3.83;;;;;;;;;;6193825;23;20083;-76
2022/06/10 12:17:05;;;;;;;12.60;7.25;;;;;;;;;;6218590;23;20012;-77
2022/06/10 12:19:34;;;;;;;9.98;5.75;;;;;;;;;;6218561;23;20431;-77
2022/06/10 12:22:00;;;;;;;7.15;4.18;;;;;;;;;;6194752;23;20066;-77
2022/06/10 12:24:26;;;;;;;8.95;5.68;;;;;;;;;;6245652;23;20312;-77
2022/06/10 12:27:01;;;;;;;8.43;5.32;;;;;;;;;;6245444;23;20313;-78
2022/06/10 12:29:47;;;;;;;6.18;5.10;;;;;;;;;;6256323;23;20004;-77
2022/06/10 12:32:45;;;;;;;4.88;3.33;;;;;;;;;;6219120;23;20027;-78
2022/06/10 12:35:11;;;;;;;8.55;6.68;;;;;;;;;;6218180;23;20004;-78
2022/06/10 12:37:41;;;;;;;10.85;4.50;;;;;;;;;;6218719;23;20107;-78
2022/06/10 12:40:11;;;;;;;;;;;;;;;;;;6219408;23;20359;-76
2022/06/10 12:42:39;;;;;;;;;;;;;;;;;;6219166;23;19907;-77
2022/06/10 12:45:09;;;;;;;7.85;4.20;;;;;;;;;;6245646;23;19931;-78
2022/06/10 12:47:37;;;;;;;21.95;14.98;;;;;;;;;;6245274;23;20000;-77
2022/06/10 12:50:16;;;;;;;9.23;5.13;;;;;;;;;;6200161;23;20004;-77
2022/06/10 12:53:01;;;;;;;;;;;;;;;;;;6197731;23;20000;-77
2022/06/10 12:55:32;;;;;;;6.28;4.03;;;;;;;;;;6245324;23;19908;-78
2022/06/10 12:57:57;;;;;;;10.45;7.28;;;;;;;;;;6218960;23;20008;-76
2022/06/10 13:00:26;;;;;;;11.27;5.82;;;;;;;;;;6245070;23;20027;-77
2022/06/10 13:03:17;;;;;;;6.10;3.35;;;;;;;;;;6245376;23;20023;-77
2022/06/10 13:05:44;;;;;;;5.00;3.60;;;;;;;;;;6223650;23;20026;-76
2022/06/10 13:08:38;;;;;;;4.43;3.30;;;;;;;;;;6245578;23;20382;-77
2022/06/10 13:11:07;;;;;;;7.25;3.97;;;;;;;;;;6225580;23;20012;-77
2022/06/10 13:13:32;;;;;;;4.53;3.50;;;;;;;;;;6194038;23;20000;-76
2022/06/10 13:16:22;;;;;;;4.03;3.33;;;;;;;;;;6193504;23;20019;-77
2022/06/10 13:18:58;;;;;;;6.43;3.53;;;;;;;;;;6245318;23;20090;-77
2022/06/10 13:21:29;;;;;;;6.43;3.67;;;;;;;;;;6245663;23;20011;-77
2022/06/10 13:24:11;;;;;;;4.78;4.20;;;;;;;;;;6245522;23;20000;-77
2022/06/10 13:26:37;;;;;;;6.45;5.28;;;;;;;;;;6246213;23;20008;-77
2022/06/10 13:29:13;;;;;;;7.80;5.43;;;;;;;;;;6245035;23;20007;-77
2022/06/10 13:31:47;;;;;;;13.18;8.48;;;;;;;;;;6249853;23;20035;-76
2022/06/10 13:34:19;;;;;;;20.17;13.85;;;;;;;;;;6247547;23;20020;-76
2022/06/10 13:36:51;;;;;;;16.02;7.80;;;;;;;;;;6219386;23;20015;-77
2022/06/10 13:39:33;;;;;;;10.10;6.70;;;;;;;;;;6168516;23;20056;-76
2022/06/10 13:41:58;;;;;;;6.65;5.32;;;;;;;;;;6220825;23;20137;-77
2022/06/10 13:44:33;;;;;;;14.93;11.98;;;;;;;;;;6245241;23;20415;-77
2022/06/10 13:46:59;;;;;;;6.55;5.50;;;;;;;;;;6244993;23;20427;-76
2022/06/10 13:50:00;;;;;;;12.25;6.68;;;;;;;;;;6218235;23;20062;-76
2022/06/10 13:52:33;;;;;;;18.73;8.13;;;;;;;;;;6250408;23;20004;-76
2022/06/10 13:55:13;;;;;;;14.82;8.73;;;;;;;;;;6247921;23;20008;-76
2022/06/10 13:57:39;;;;;;;17.67;9.93;;;;;;;;;;6221092;23;20003;-76
2022/06/10 14:00:07;;;;;;;14.63;10.77;;;;;;;;;;6244915;23;20036;-77
2022/06/10 14:02:36;;;;;;;18.25;11.20;;;;;;;;;;6244506;23;20374;-77
2022/06/10 14:05:03;;;;;;;22.70;12.82;;;;;;;;;;6218722;23;20075;-75
2022/06/10 14:07:38;;;;;;;15.32;10.70;;;;;;;;;;6192843;23;20411;-76
2022/06/10 14:10:14;;;;;;;12.55;10.27;;;;;;;;;;6219876;23;20000;-76
2022/06/10 14:12:39;;;;;;;19.17;11.63;;;;;;;;;;6246504;23;20028;-76
2022/06/10 14:15:15;;;;;;;17.35;11.10;;;;;;;;;;6245089;23;20027;-75
2022/06/10 14:17:49;;;;;;;15.73;10.82;;;;;;;;;;6244676;23;20075;-76
2022/06/10 14:20:14;;;;;;;15.98;11.80;;;;;;;;;;6217390;23;20034;-75
2022/06/10 14:22:40;;;;;;;21.88;11.10;;;;;;;;;;6192739;23;20000;-78
2022/06/10 14:25:14;;;;;;;15.52;11.45;;;;;;;;;;6244632;23;20423;-77
2022/06/10 14:28:11;;;;;;;16.52;10.88;;;;;;;;;;6244655;23;19996;-77
2022/06/10 14:30:39;;;;;;;16.35;10.57;;;;;;;;;;6192662;23;20410;-78
2022/06/10 14:33:15;;;;;;;13.07;10.35;;;;;;;;;;6248482;23;20004;-76
2022/06/10 14:35:43;;;;;;;16.30;10.68;;;;;;;;;;6248535;23;20004;-78
2022/06/10 14:38:11;;;;;;;19.17;11.32;;;;;;;;;;6217425;23;20004;-78
2022/06/10 14:40:51;;;;;;;16.67;11.77;;;;;;;;;;6244407;23;20008;-78
2022/06/10 14:43:21;;;;;;;15.05;11.77;;;;;;;;;;6220485;23;20036;-78
2022/06/10 14:45:47;;;;;;;15.20;11.65;;;;;;;;;;6218354;23;20431;-77
2022/06/10 14:48:18;;;;;;;17.30;12.25;;;;;;;;;;6192764;23;20006;-77
2022/06/10 14:51:25;;;;;;;14.77;12.68;;;;;;;;;;6242666;23;20015;-77
2022/06/10 14:53:56;;;;;;;15.55;11.82;;;;;;;;;;6232547;23;20102;-78
2022/06/10 14:56:38;;;;;;;16.17;13.05;;;;;;;;;;6243826;23;20015;-77
2022/06/10 14:59:23;;;;;;;16.92;11.82;;;;;;;;;;6244134;23;20004;-77
2022/06/10 15:01:50;;;;;;;17.60;12.13;;;;;;;;;;6218351;23;20397;-78
2022/06/10 15:04:15;;;;;;;19.27;12.98;;;;;;;;;;6244026;23;20046;-77
2022/06/10 15:06:43;;;;;;;19.92;12.98;;;;;;;;;;6243987;23;20008;-77
2022/06/10 15:09:36;;;;;;;19.05;12.93;;;;;;;;;;6217680;23;20007;-78
2022/06/10 15:12:24;;;;;;;20.30;13.43;;;;;;;;;;6217411;23;20015;-77
2022/06/10 15:14:50;;;;;;;18.70;12.52;;;;;;;;;;6245824;23;20484;-78
2022/06/10 15:17:16;;;;;;;16.90;13.10;;;;;;;;;;6217708;23;20084;-78
2022/06/10 15:19:42;;;;;;;19.10;13.57;;;;;;;;;;6243818;23;20087;-78
2022/06/10 15:22:17;;;;;;;17.27;13.02;;;;;;;;;;6243641;23;20008;-78
2022/06/10 15:24:43;;;;;;;19.20;13.18;;;;;;;;;;6218461;23;19992;-78
2022/06/10 15:27:08;;;;;;;22.27;13.98;;;;;;;;;;6244208;23;20008;-78
2022/06/10 15:29:33;;;;;;;19.50;14.82;;;;;;;;;;6192079;23;20032;-78
2022/06/10 15:31:59;;;;;;;18.92;14.25;;;;;;;;;;6243842;23;20035;-77
2022/06/10 15:34:25;;;;;;;20.00;13.88;;;;;;;;;;6247019;23;20003;-77
2022/06/10 15:42:23;;;;;;;17.08;12.90;;;;;;;;;;6243830;23;20012;-78
2022/06/10 15:44:49;;;;;;;20.65;13.57;;;;;;;;;;6244680;23;20091;-78
2022/06/10 15:47:16;;;;;;;24.02;15.13;;;;;;;;;;6244260;23;20000;-78
2022/06/10 15:49:43;;;;;;;21.67;13.57;;;;;;;;;;6191705;23;20012;-77
2022/06/10 15:52:23;;;;;;;22.05;15.15;;;;;;;;;;6217513;23;20058;-78
2022/06/10 15:57:39;;;;;;;18.00;13.27;;;;;;;;;;6221193;23;20012;-78
2022/06/10 16:00:13;;;;;;;21.05;15.43;;;;;;;;;;6217908;23;20040;-78
2022/06/10 16:02:38;;;;;;;25.17;16.15;;;;;;;;;;6243618;23;20006;-78
2022/06/10 16:05:31;;;;;;;24.98;15.10;;;;;;;;;;6217022;23;20008;-78
2022/06/10 16:07:57;;;;;;;21.75;15.43;;;;;;;;;;6237772;23;20004;-78
2022/06/10 16:10:23;;;;;;;21.70;13.55;;;;;;;;;;6217302;23;20343;-78
2022/06/10 16:12:59;;;;;;;19.73;14.75;;;;;;;;;;6243563;23;20000;-79
2022/06/10 16:15:27;;;;;;;19.70;14.30;;;;;;;;;;6251614;23;20012;-78
2022/06/10 16:17:53;;;;;;;22.35;14.90;;;;;;;;;;6246233;23;20443;-78
2022/06/10 16:20:19;;;;;;;25.17;16.17;;;;;;;;;;6192103;23;20004;-78
2022/06/10 16:22:45;;;;;;;19.30;12.55;;;;;;;;;;6245185;23;20004;-77
2022/06/10 16:25:11;;;;;;;19.55;13.90;;;;;;;;;;6245817;23;20081;-78
2022/06/10 16:27:37;;;;;;;17.05;13.80;;;;;;;;;;6245732;23;20011;-78
2022/06/10 16:30:03;;;;;;;15.50;12.75;;;;;;;;;;6218936;23;20359;-78
2022/06/10 16:32:28;;;;;;;19.30;12.80;;;;;;;;;;6219172;23;20091;-78
2022/06/10 16:34:54;;;;;;;15.30;10.60;;;;;;;;;;6221745;23;20467;-77
2022/06/10 16:37:20;;;;;;;14.15;10.23;;;;;;;;;;6228988;23;20004;-77
2022/06/10 16:39:48;;;;;;;15.77;10.93;;;;;;;;;;6245809;23;20351;-77
2022/06/10 16:42:24;;;;;;;12.00;10.25;;;;;;;;;;6245358;23;20005;-77
2022/06/10 16:44:49;;;;;;;16.35;10.80;;;;;;;;;;6218704;23;20000;-77
2022/06/10 16:47:15;;;;;;;11.30;10.10;;;;;;;;;;6218320;23;21079;-78
2022/06/10 16:49:41;;;;;;;12.25;10.15;;;;;;;;;;6245399;23;20000;-79
2022/06/10 16:52:08;;;;;;;13.23;10.38;;;;;;;;;;6245414;23;20008;-78
2022/06/10 16:54:34;;;;;;;13.10;8.73;;;;;;;;;;6245661;23;20011;-78
2022/06/10 16:57:00;;;;;;;13.55;9.48;;;;;;;;;;6254088;23;20000;-78
2022/06/10 16:59:26;;;;;;;12.07;6.50;;;;;;;;;;6170503;23;20004;-80
2022/06/10 17:01:56;;;;;;;7.90;6.97;;;;;;;;;;6197818;23;20487;-78
2022/06/10 17:04:22;;;;;;;7.72;6.70;;;;;;;;;;6219053;23;20030;-78
2022/06/10 17:06:47;;;;;;;7.55;6.40;;;;;;;;;;6245483;23;20431;-78
2022/06/10 17:09:13;;;;;;;11.05;5.55;;;;;;;;;;6243919;23;20066;-78
2022/06/10 17:11:41;;;;;;;7.97;5.30;;;;;;;;;;6218431;23;20008;-78
2022/06/10 17:14:07;;;;;;;6.25;5.60;;;;;;;;;;6193975;23;20342;-78
2022/06/10 17:16:37;;;;;;;7.85;5.57;;;;;;;;;;6194040;23;20339;-77
2022/06/10 17:19:04;;;;;;;6.50;5.15;;;;;;;;;;6222651;23;20060;-78
2022/06/10 17:21:31;;;;;;;8.48;5.50;;;;;;;;;;6246314;23;20321;-78
2022/06/10 17:23:57;;;;;;;9.45;6.03;;;;;;;;;;6219788;23;20000;-79
2022/06/10 17:26:31;;;;;;;7.80;5.75;;;;;;;;;;6244831;23;20019;-78
2022/06/10 17:29:02;;;;;;;8.55;6.10;;;;;;;;;;6218873;23;20008;-78
2022/06/10 17:31:29;;;;;;;8.90;6.07;;;;;;;;;;6245091;23;20010;-79
2022/06/10 17:33:56;;;;;;;8.57;7.07;;;;;;;;;;6245042;23;20082;-79
2022/06/10 17:36:25;;;;;;;9.98;7.47;;;;;;;;;;6245212;23;20028;-77
2022/06/10 17:38:52;;;;;;;9.43;7.15;;;;;;;;;;6200080;23;20004;-78
2022/06/10 17:41:28;;;;;;;9.90;7.30;;;;;;;;;;6218230;23;20004;-78
2022/06/10 17:44:11;;;;;;;10.13;7.20;;;;;;;;;;6226271;23;20000;-77
2022/06/10 17:46:46;;;;;;;10.57;7.13;;;;;;;;;;6217818;23;20365;-79
2022/06/10 17:49:27;;;;;;;9.85;7.43;;;;;;;;;;6245149;23;20176;-78
2022/06/10 17:51:54;;;;;;;17.75;7.60;;;;;;;;;;6244688;23;20012;-79
2022/06/10 17:54:20;;;;;;;7.43;6.45;;;;;;;;;;6218218;23;20042;-78
2022/06/10 17:56:45;;;;;;;12.35;8.05;;;;;;;;;;6218283;23;20008;-78
2022/06/10 17:59:38;;;;;;;16.25;7.53;;;;;;;;;;6252225;23;20003;-78
2022/06/10 18:02:19;;;;;;;18.80;8.50;;;;;;;;;;6237810;23;20375;-77
2022/06/10 18:04:44;;;;;;;14.23;7.93;;;;;;;;;;6220165;23;20109;-77
2022/06/10 18:07:13;;;;;;;14.93;7.80;;;;;;;;;;6244335;23;20104;-77
2022/06/10 18:09:38;;;;;;;12.98;7.22;;;;;;;;;;6194552;23;20022;-77
2022/06/10 18:12:04;;;;;;;11.15;7.20;;;;;;;;;;6218332;23;20024;-77
2022/06/10 18:17:17;;;;;;;10.80;7.60;;;;;;;;;;6244605;23;20023;-78
2022/06/10 18:19:42;;;;;;;10.77;8.25;;;;;;;;;;6205459;23;20004;-77
2022/06/10 18:22:11;;;;;;;12.60;8.10;;;;;;;;;;6217850;23;20004;-77
2022/06/10 18:24:37;;;;;;;15.38;9.70;;;;;;;;;;6216750;23;20011;-78
2022/06/10 18:27:03;;;;;;;17.90;10.10;;;;;;;;;;6244261;23;20004;-77